TOM4EG GCLP-EGHH
Flight info
| Callsign | TOM4EG |
|---|---|
| Flight time | N/A |
| Altitude | 36000 |
| Route | VASTO DCT NIDEB DCT TIGGI DCT BUSEN DCT LAVPA DCT PINEK DCT KORUL DCT IDRIK DCT OZNOH DCT JSY DCT REVTU UY110 ORIST Y110 THRED |
| Aircraft | B738/M-SDFGHIJ1RWXYZ/LB1 |
Departure
| Time | N/A |
|---|---|
| Airport | Gran Canaria Airport (GCLP) |
Arrival
| Time | 2026-04-30 20:40 |
|---|---|
| Airport | Bournemouth Airport (EGHH) |
| Time | Latitude | Longitude | Altitude | Speed | Heading |
|---|---|---|---|---|---|
| 2026-04-30 17:39 | 31.09336 | -13.20529 | 36126 ft | 456 kts | 20° |
| 2026-04-30 17:42 | 31.37271 | -13.02761 | 36126 ft | 458 kts | 20° |
| 2026-04-30 17:43 | 31.51276 | -12.93808 | 36126 ft | 459 kts | 20° |
| 2026-04-30 17:44 | 31.68051 | -12.83041 | 36123 ft | 459 kts | 20° |
| 2026-04-30 17:47 | 31.92289 | -12.67406 | 36124 ft | 458 kts | 20° |
| 2026-04-30 17:48 | 32.11793 | -12.54756 | 36126 ft | 457 kts | 20° |
| 2026-04-30 17:50 | 32.34043 | -12.40250 | 36140 ft | 458 kts | 20° |
| 2026-04-30 17:52 | 32.50793 | -12.29274 | 36122 ft | 460 kts | 20° |
| 2026-04-30 17:54 | 32.76020 | -12.12650 | 36122 ft | 462 kts | 20° |
| 2026-04-30 17:56 | 32.98545 | -11.98289 | 36120 ft | 445 kts | 7° |
| 2026-04-30 17:58 | 33.16328 | -11.92406 | 36126 ft | 442 kts | 6° |
| 2026-04-30 18:00 | 33.39944 | -11.84352 | 36150 ft | 441 kts | 6° |
| 2026-04-30 18:01 | 33.54728 | -11.79283 | 36129 ft | 443 kts | 6° |
| 2026-04-30 18:02 | 33.72552 | -11.73148 | 36133 ft | 445 kts | 7° |
| 2026-04-30 18:04 | 33.90454 | -11.66958 | 36128 ft | 447 kts | 7° |
| 2026-04-30 18:06 | 34.14334 | -11.58659 | 36127 ft | 447 kts | 7° |
| 2026-04-30 18:08 | 34.35283 | -11.51339 | 36124 ft | 448 kts | 7° |
| 2026-04-30 18:10 | 34.59269 | -11.42911 | 36127 ft | 450 kts | 7° |
| 2026-04-30 18:11 | 34.80354 | -11.35459 | 36133 ft | 452 kts | 8° |
| 2026-04-30 18:13 | 34.95498 | -11.30084 | 36123 ft | 454 kts | 8° |
| 2026-04-30 18:14 | 35.10691 | -11.24668 | 36123 ft | 456 kts | 9° |
| 2026-04-30 18:15 | 35.28965 | -11.18128 | 36133 ft | 457 kts | 9° |
| 2026-04-30 18:16 | 35.41158 | -11.13746 | 36123 ft | 457 kts | 9° |
| 2026-04-30 18:17 | 35.47258 | -11.11548 | 36119 ft | 457 kts | 9° |
| 2026-04-30 18:18 | 35.56361 | -11.08263 | 36122 ft | 456 kts | 9° |
| 2026-04-30 18:18 | 35.62453 | -11.06060 | 36123 ft | 456 kts | 9° |
| 2026-04-30 18:19 | 35.68542 | -11.03854 | 36120 ft | 456 kts | 9° |
| 2026-04-30 18:19 | 35.74629 | -11.01645 | 36147 ft | 456 kts | 9° |
| 2026-04-30 18:20 | 35.80720 | -10.99431 | 36126 ft | 456 kts | 9° |
| 2026-04-30 18:20 | 35.86813 | -10.97213 | 36120 ft | 457 kts | 9° |
| 2026-04-30 18:21 | 35.92907 | -10.94989 | 36123 ft | 457 kts | 9° |
| 2026-04-30 18:21 | 35.99006 | -10.92774 | 36131 ft | 456 kts | 9° |
| 2026-04-30 18:22 | 36.05113 | -10.90633 | 36134 ft | 456 kts | 9° |
| 2026-04-30 18:22 | 36.14281 | -10.87433 | 36124 ft | 456 kts | 9° |
| 2026-04-30 18:23 | 36.20383 | -10.85288 | 36124 ft | 456 kts | 9° |
| 2026-04-30 18:23 | 36.26483 | -10.83135 | 36142 ft | 455 kts | 9° |
| 2026-04-30 18:24 | 36.35627 | -10.79900 | 36125 ft | 455 kts | 9° |
| 2026-04-30 18:25 | 36.41715 | -10.77742 | 36123 ft | 455 kts | 9° |
| 2026-04-30 18:25 | 36.50842 | -10.74501 | 36147 ft | 455 kts | 9° |
| 2026-04-30 18:26 | 36.59965 | -10.71253 | 36124 ft | 455 kts | 9° |
| 2026-04-30 18:27 | 36.69087 | -10.67998 | 36122 ft | 455 kts | 9° |
| 2026-04-30 18:28 | 36.78162 | -10.64751 | 36137 ft | 455 kts | 9° |
| 2026-04-30 18:28 | 36.87285 | -10.61479 | 36125 ft | 455 kts | 9° |
| 2026-04-30 18:29 | 36.99454 | -10.57102 | 36128 ft | 455 kts | 10° |
| 2026-04-30 18:30 | 37.11604 | -10.52717 | 36123 ft | 454 kts | 10° |
| 2026-04-30 18:31 | 37.20680 | -10.49431 | 36121 ft | 452 kts | 10° |
| 2026-04-30 18:32 | 37.29718 | -10.46151 | 36125 ft | 450 kts | 10° |
| 2026-04-30 18:33 | 37.38729 | -10.42874 | 36118 ft | 449 kts | 10° |
| 2026-04-30 18:33 | 37.46705 | -10.39966 | 36120 ft | 448 kts | 10° |
| 2026-04-30 18:34 | 37.55690 | -10.36682 | 36128 ft | 449 kts | 10° |
| 2026-04-30 18:35 | 37.61692 | -10.34485 | 36119 ft | 449 kts | 10° |
| 2026-04-30 18:35 | 37.67704 | -10.32279 | 36121 ft | 450 kts | 10° |
| 2026-04-30 18:36 | 37.76733 | -10.28959 | 36134 ft | 451 kts | 10° |
| 2026-04-30 18:37 | 37.85788 | -10.25622 | 36121 ft | 452 kts | 10° |
| 2026-04-30 18:37 | 37.91833 | -10.23389 | 36123 ft | 453 kts | 10° |
| 2026-04-30 18:38 | 37.97874 | -10.21116 | 36117 ft | 453 kts | 11° |
| 2026-04-30 18:38 | 38.03901 | -10.18742 | 36130 ft | 453 kts | 11° |
| 2026-04-30 18:39 | 38.09917 | -10.16352 | 36115 ft | 453 kts | 11° |
| 2026-04-30 18:39 | 38.15922 | -10.13974 | 36118 ft | 451 kts | 11° |
| 2026-04-30 18:40 | 38.21914 | -10.11603 | 36130 ft | 450 kts | 11° |
| 2026-04-30 18:40 | 38.27890 | -10.09238 | 36122 ft | 449 kts | 11° |
| 2026-04-30 18:41 | 38.33854 | -10.06874 | 36117 ft | 448 kts | 11° |
| 2026-04-30 18:41 | 38.39804 | -10.04511 | 36120 ft | 447 kts | 11° |
| 2026-04-30 18:42 | 38.45745 | -10.02148 | 36122 ft | 447 kts | 11° |
| 2026-04-30 18:42 | 38.54657 | -9.98595 | 36130 ft | 448 kts | 11° |
| 2026-04-30 18:45 | 38.87523 | -9.85412 | 36130 ft | 453 kts | 11° |
| 2026-04-30 18:46 | 38.93541 | -9.82983 | 36118 ft | 454 kts | 12° |
| 2026-04-30 18:46 | 38.99579 | -9.80542 | 36128 ft | 456 kts | 13° |
| 2026-04-30 18:47 | 39.05597 | -9.78106 | 36131 ft | 457 kts | 13° |
| 2026-04-30 18:47 | 39.11675 | -9.75641 | 36125 ft | 459 kts | 13° |
| 2026-04-30 18:48 | 39.17768 | -9.73165 | 36132 ft | 460 kts | 13° |
| 2026-04-30 18:48 | 39.23935 | -9.70655 | 36127 ft | 462 kts | 14° |
| 2026-04-30 18:49 | 39.30033 | -9.68167 | 36127 ft | 464 kts | 13° |
| 2026-04-30 18:49 | 39.36197 | -9.65649 | 36124 ft | 465 kts | 14° |
| 2026-04-30 18:50 | 39.42377 | -9.63119 | 36129 ft | 467 kts | 14° |
| 2026-04-30 18:50 | 39.48576 | -9.60576 | 36125 ft | 468 kts | 14° |
| 2026-04-30 18:51 | 39.54795 | -9.58021 | 36119 ft | 469 kts | 14° |
| 2026-04-30 18:51 | 39.61026 | -9.55455 | 36116 ft | 470 kts | 14° |
| 2026-04-30 18:52 | 39.67267 | -9.52882 | 36111 ft | 471 kts | 15° |
| 2026-04-30 18:52 | 39.73524 | -9.50296 | 36126 ft | 472 kts | 15° |
| 2026-04-30 18:53 | 39.79791 | -9.47701 | 36111 ft | 473 kts | 15° |
| 2026-04-30 18:53 | 39.86075 | -9.45095 | 36098 ft | 474 kts | 16° |
| 2026-04-30 18:54 | 39.92370 | -9.42478 | 36124 ft | 476 kts | 17° |
| 2026-04-30 18:54 | 39.98686 | -9.39847 | 36123 ft | 477 kts | 17° |
| 2026-04-30 18:55 | 40.05029 | -9.37201 | 36119 ft | 479 kts | 17° |
| 2026-04-30 18:55 | 40.14573 | -9.33209 | 36121 ft | 481 kts | 17° |
| 2026-04-30 18:56 | 40.24115 | -9.29206 | 36115 ft | 483 kts | 17° |
| 2026-04-30 18:57 | 40.33710 | -9.25168 | 36117 ft | 483 kts | 17° |
| 2026-04-30 18:57 | 40.40103 | -9.22472 | 36116 ft | 482 kts | 17° |
| 2026-04-30 18:58 | 40.49673 | -9.18425 | 36116 ft | 481 kts | 17° |
| 2026-04-30 18:59 | 40.59210 | -9.14379 | 36114 ft | 480 kts | 17° |
| 2026-04-30 19:00 | 40.71891 | -9.08982 | 36103 ft | 478 kts | 17° |
| 2026-04-30 19:01 | 40.84536 | -9.03578 | 36122 ft | 477 kts | 18° |
| 2026-04-30 19:02 | 40.94017 | -8.99512 | 36122 ft | 478 kts | 18° |
| 2026-04-30 19:03 | 41.06681 | -8.94062 | 36124 ft | 479 kts | 18° |
| 2026-04-30 19:04 | 41.19371 | -8.88579 | 36129 ft | 480 kts | 18° |
| 2026-04-30 19:05 | 41.32051 | -8.83077 | 36129 ft | 481 kts | 18° |
| 2026-04-30 19:06 | 41.44792 | -8.77526 | 36132 ft | 482 kts | 18° |
| 2026-04-30 19:06 | 41.54354 | -8.73344 | 36135 ft | 482 kts | 18° |
| 2026-04-30 19:07 | 41.63902 | -8.69155 | 36127 ft | 481 kts | 18° |
| 2026-04-30 19:08 | 41.76594 | -8.63564 | 36126 ft | 479 kts | 18° |
| 2026-04-30 19:09 | 41.86071 | -8.59347 | 36129 ft | 478 kts | 19° |
| 2026-04-30 19:09 | 41.92273 | -8.56138 | 36130 ft | 477 kts | 22° |
| 2026-04-30 19:10 | 42.04563 | -8.49412 | 36141 ft | 476 kts | 22° |
| 2026-04-30 19:11 | 42.13750 | -8.44454 | 36141 ft | 477 kts | 21° |
| 2026-04-30 19:12 | 42.19916 | -8.41132 | 36142 ft | 477 kts | 21° |
| 2026-04-30 19:12 | 42.26090 | -8.37798 | 36135 ft | 478 kts | 22° |
| 2026-04-30 19:13 | 42.38455 | -8.31097 | 36131 ft | 479 kts | 22° |
| 2026-04-30 19:14 | 42.44643 | -8.27731 | 36134 ft | 479 kts | 22° |
| 2026-04-30 19:14 | 42.50832 | -8.24358 | 36141 ft | 479 kts | 22° |
| 2026-04-30 19:15 | 42.57016 | -8.20981 | 36141 ft | 479 kts | 22° |
| 2026-04-30 19:15 | 42.66288 | -8.15904 | 36135 ft | 479 kts | 22° |
| 2026-04-30 19:16 | 42.72460 | -8.12515 | 36136 ft | 479 kts | 22° |
| 2026-04-30 19:17 | 42.81720 | -8.07417 | 36139 ft | 478 kts | 22° |
| 2026-04-30 19:17 | 42.90970 | -8.02308 | 36133 ft | 478 kts | 22° |
| 2026-04-30 19:18 | 43.00216 | -7.97184 | 36136 ft | 478 kts | 22° |
| 2026-04-30 19:19 | 43.06380 | -7.93759 | 36136 ft | 478 kts | 22° |
| 2026-04-30 19:19 | 43.15587 | -7.88629 | 36133 ft | 478 kts | 22° |
| 2026-04-30 19:20 | 43.20754 | -7.85744 | 36143 ft | 479 kts | 22° |
| 2026-04-30 19:21 | 43.31010 | -7.79999 | 36136 ft | 479 kts | 22° |
| 2026-04-30 19:22 | 43.42313 | -7.73643 | 36137 ft | 480 kts | 22° |
| 2026-04-30 19:23 | 43.60852 | -7.63164 | 36140 ft | 480 kts | 21° |
| 2026-04-30 19:24 | 43.70127 | -7.57895 | 36131 ft | 480 kts | 21° |
| 2026-04-30 19:25 | 43.85536 | -7.49101 | 36135 ft | 479 kts | 21° |
| 2026-04-30 19:26 | 43.97832 | -7.42048 | 36133 ft | 478 kts | 22° |
| 2026-04-30 19:27 | 44.07043 | -7.36745 | 36133 ft | 478 kts | 21° |
| 2026-04-30 19:28 | 44.16247 | -7.31427 | 36133 ft | 477 kts | 22° |
| 2026-04-30 19:29 | 44.28475 | -7.24334 | 36136 ft | 478 kts | 21° |
| 2026-04-30 19:30 | 44.40738 | -7.17188 | 36140 ft | 477 kts | 21° |
| 2026-04-30 19:31 | 44.52994 | -7.10013 | 36135 ft | 477 kts | 21° |
| 2026-04-30 19:31 | 44.62182 | -7.04612 | 36136 ft | 477 kts | 21° |
| 2026-04-30 19:32 | 44.68304 | -7.01002 | 36139 ft | 477 kts | 21° |
| 2026-04-30 19:32 | 44.74424 | -6.97384 | 36139 ft | 477 kts | 21° |
| 2026-04-30 19:33 | 44.80539 | -6.93763 | 36148 ft | 477 kts | 21° |
| 2026-04-30 19:33 | 44.86302 | -6.89165 | 36136 ft | 478 kts | 38° |
| 2026-04-30 19:34 | 44.91495 | -6.83328 | 36133 ft | 477 kts | 39° |
| 2026-04-30 19:35 | 44.99245 | -6.74510 | 36144 ft | 477 kts | 38° |
| 2026-04-30 19:35 | 45.04437 | -6.68671 | 36141 ft | 477 kts | 38° |
| 2026-04-30 19:36 | 45.09633 | -6.62845 | 36136 ft | 477 kts | 38° |
| 2026-04-30 19:36 | 45.17421 | -6.54090 | 36130 ft | 476 kts | 38° |
| 2026-04-30 19:37 | 45.22606 | -6.48242 | 36142 ft | 476 kts | 38° |
| 2026-04-30 19:37 | 45.27784 | -6.42386 | 36144 ft | 476 kts | 38° |
| 2026-04-30 19:38 | 45.32921 | -6.36561 | 36141 ft | 476 kts | 38° |
| 2026-04-30 19:38 | 45.38122 | -6.30650 | 36143 ft | 475 kts | 38° |
| 2026-04-30 19:39 | 45.43250 | -6.24808 | 36146 ft | 475 kts | 38° |
| 2026-04-30 19:39 | 45.48408 | -6.18919 | 36137 ft | 475 kts | 38° |
| 2026-04-30 19:40 | 45.53564 | -6.13040 | 36139 ft | 474 kts | 38° |
| 2026-04-30 19:40 | 45.58709 | -6.07146 | 36145 ft | 474 kts | 38° |
| 2026-04-30 19:41 | 45.63843 | -6.01239 | 36148 ft | 474 kts | 38° |
| 2026-04-30 19:41 | 45.68971 | -5.95322 | 36144 ft | 474 kts | 38° |
| 2026-04-30 19:42 | 45.74098 | -5.89396 | 36145 ft | 474 kts | 38° |
| 2026-04-30 19:42 | 45.79216 | -5.83464 | 36146 ft | 473 kts | 38° |
| 2026-04-30 19:43 | 45.84333 | -5.77522 | 36151 ft | 473 kts | 38° |
| 2026-04-30 19:44 | 45.91998 | -5.68591 | 36146 ft | 473 kts | 38° |
| 2026-04-30 19:44 | 45.97097 | -5.62630 | 36143 ft | 473 kts | 38° |
| 2026-04-30 19:45 | 46.02198 | -5.56654 | 36144 ft | 473 kts | 38° |
| 2026-04-30 19:45 | 46.07256 | -5.50714 | 36150 ft | 472 kts | 38° |
| 2026-04-30 19:46 | 46.12345 | -5.44725 | 36142 ft | 472 kts | 38° |
| 2026-04-30 19:46 | 46.17426 | -5.38729 | 36144 ft | 472 kts | 38° |
| 2026-04-30 19:47 | 46.22497 | -5.32731 | 36145 ft | 471 kts | 38° |
| 2026-04-30 19:47 | 46.27563 | -5.26723 | 36149 ft | 471 kts | 38° |
| 2026-04-30 19:48 | 46.32624 | -5.20707 | 36133 ft | 471 kts | 38° |
| 2026-04-30 19:48 | 46.37671 | -5.14690 | 36145 ft | 470 kts | 38° |
| 2026-04-30 19:49 | 46.42708 | -5.08672 | 36143 ft | 469 kts | 38° |
| 2026-04-30 19:49 | 46.50244 | -4.99640 | 36142 ft | 468 kts | 38° |
| 2026-04-30 19:50 | 46.55256 | -4.93614 | 36138 ft | 467 kts | 38° |
| 2026-04-30 19:50 | 46.60258 | -4.87585 | 36139 ft | 467 kts | 38° |
| 2026-04-30 19:51 | 46.65252 | -4.81552 | 36139 ft | 466 kts | 38° |
| 2026-04-30 19:51 | 46.70231 | -4.75522 | 36137 ft | 465 kts | 38° |
| 2026-04-30 19:52 | 46.75195 | -4.69495 | 36135 ft | 464 kts | 38° |
| 2026-04-30 19:52 | 46.80143 | -4.63473 | 36139 ft | 463 kts | 38° |
| 2026-04-30 19:53 | 46.85080 | -4.57447 | 36141 ft | 462 kts | 38° |
| 2026-04-30 19:53 | 46.90005 | -4.51424 | 36139 ft | 461 kts | 38° |
| 2026-04-30 19:54 | 46.94923 | -4.45392 | 36138 ft | 461 kts | 38° |
| 2026-04-30 19:54 | 46.99804 | -4.39392 | 36140 ft | 461 kts | 38° |
| 2026-04-30 19:55 | 47.04711 | -4.33343 | 36139 ft | 461 kts | 38° |
| 2026-04-30 19:55 | 47.09618 | -4.27279 | 36137 ft | 461 kts | 38° |
| 2026-04-30 19:56 | 47.14525 | -4.21202 | 36140 ft | 462 kts | 39° |
| 2026-04-30 19:56 | 47.19435 | -4.15106 | 36139 ft | 462 kts | 39° |
| 2026-04-30 19:57 | 47.24340 | -4.09000 | 36136 ft | 462 kts | 38° |
| 2026-04-30 19:57 | 47.29237 | -4.02887 | 36132 ft | 461 kts | 38° |
| 2026-04-30 19:58 | 47.34125 | -3.96768 | 36140 ft | 461 kts | 39° |
| 2026-04-30 19:58 | 47.39002 | -3.90649 | 36137 ft | 460 kts | 39° |
| 2026-04-30 19:59 | 47.43866 | -3.84532 | 36135 ft | 459 kts | 39° |
| 2026-04-30 20:00 | 47.51143 | -3.75346 | 36132 ft | 458 kts | 39° |
| 2026-04-30 20:00 | 47.55978 | -3.69219 | 36138 ft | 457 kts | 39° |
| 2026-04-30 20:01 | 47.63220 | -3.60028 | 36134 ft | 457 kts | 39° |
| 2026-04-30 20:01 | 47.68040 | -3.53896 | 36130 ft | 456 kts | 39° |
| 2026-04-30 20:02 | 47.75231 | -3.44716 | 36137 ft | 456 kts | 40° |
| 2026-04-30 20:03 | 47.82444 | -3.35466 | 36138 ft | 457 kts | 40° |
| 2026-04-30 20:03 | 47.87249 | -3.29283 | 36125 ft | 457 kts | 40° |
| 2026-04-30 20:04 | 47.92054 | -3.23085 | 36126 ft | 457 kts | 40° |
| 2026-04-30 20:05 | 47.99250 | -3.13774 | 36122 ft | 456 kts | 40° |
| 2026-04-30 20:05 | 48.06432 | -3.04444 | 36119 ft | 456 kts | 40° |
| 2026-04-30 20:06 | 48.11216 | -2.98210 | 36110 ft | 456 kts | 40° |
| 2026-04-30 20:06 | 48.15994 | -2.91967 | 36115 ft | 456 kts | 41° |
| 2026-04-30 20:07 | 48.20763 | -2.85721 | 36118 ft | 455 kts | 41° |
| 2026-04-30 20:08 | 48.27895 | -2.76345 | 36105 ft | 454 kts | 41° |
| 2026-04-30 20:08 | 48.32636 | -2.70094 | 36109 ft | 453 kts | 41° |
| 2026-04-30 20:09 | 48.37362 | -2.63842 | 36107 ft | 452 kts | 41° |
| 2026-04-30 20:09 | 48.44438 | -2.54509 | 35583 ft | 451 kts | 38° |
| 2026-04-30 20:10 | 48.49811 | -2.49881 | 34816 ft | 443 kts | 22° |
| 2026-04-30 20:10 | 48.52658 | -2.48154 | 34433 ft | 440 kts | 22° |
| 2026-04-30 20:10 | 48.55494 | -2.46458 | 34035 ft | 437 kts | 22° |
| 2026-04-30 20:11 | 48.61100 | -2.43066 | 33185 ft | 431 kts | 22° |
| 2026-04-30 20:11 | 48.63864 | -2.41367 | 32805 ft | 427 kts | 22° |
| 2026-04-30 20:11 | 48.66601 | -2.39670 | 32419 ft | 423 kts | 23° |
| 2026-04-30 20:12 | 48.72004 | -2.36297 | 31676 ft | 417 kts | 23° |
| 2026-04-30 20:12 | 48.73773 | -2.35190 | 31435 ft | 415 kts | 23° |
| 2026-04-30 20:12 | 48.76433 | -2.33522 | 31075 ft | 412 kts | 23° |
| 2026-04-30 20:13 | 48.79071 | -2.31867 | 30721 ft | 409 kts | 23° |
| 2026-04-30 20:13 | 48.81692 | -2.30222 | 30369 ft | 406 kts | 24° |
| 2026-04-30 20:13 | 48.84297 | -2.28584 | 29989 ft | 404 kts | 24° |
| 2026-04-30 20:13 | 48.86882 | -2.26958 | 29584 ft | 401 kts | 24° |
| 2026-04-30 20:14 | 48.89448 | -2.25342 | 29227 ft | 397 kts | 24° |
| 2026-04-30 20:14 | 48.91992 | -2.23738 | 28856 ft | 394 kts | 24° |
| 2026-04-30 20:14 | 48.94532 | -2.22135 | 28494 ft | 397 kts | 24° |
| 2026-04-30 20:14 | 48.97099 | -2.20512 | 28110 ft | 400 kts | 24° |
| 2026-04-30 20:15 | 48.99655 | -2.18894 | 27723 ft | 397 kts | 24° |
| 2026-04-30 20:15 | 49.02192 | -2.17288 | 27382 ft | 393 kts | 24° |
| 2026-04-30 20:15 | 49.04708 | -2.15694 | 27003 ft | 390 kts | 24° |
| 2026-04-30 20:15 | 49.07204 | -2.14109 | 26637 ft | 387 kts | 24° |
| 2026-04-30 20:16 | 49.09679 | -2.12535 | 26282 ft | 384 kts | 24° |
| 2026-04-30 20:16 | 49.12135 | -2.10971 | 25932 ft | 381 kts | 24° |
| 2026-04-30 20:16 | 49.14576 | -2.09414 | 25585 ft | 379 kts | 24° |
| 2026-04-30 20:16 | 49.17002 | -2.07867 | 25239 ft | 377 kts | 24° |
| 2026-04-30 20:17 | 49.19419 | -2.06324 | 24901 ft | 377 kts | 24° |
| 2026-04-30 20:17 | 49.21833 | -2.04780 | 24558 ft | 376 kts | 25° |
| 2026-04-30 20:17 | 49.24176 | -2.03049 | 24289 ft | 372 kts | 30° |
| 2026-04-30 20:17 | 49.26414 | -2.01174 | 23963 ft | 371 kts | 31° |
| 2026-04-30 20:18 | 49.28657 | -1.99224 | 23624 ft | 371 kts | 32° |
| 2026-04-30 20:18 | 49.30904 | -1.97265 | 23222 ft | 371 kts | 32° |
| 2026-04-30 20:18 | 49.33149 | -1.95322 | 22842 ft | 369 kts | 31° |
| 2026-04-30 20:18 | 49.35380 | -1.93405 | 22477 ft | 367 kts | 31° |
| 2026-04-30 20:19 | 49.37601 | -1.91507 | 22128 ft | 364 kts | 31° |
| 2026-04-30 20:19 | 49.39806 | -1.89626 | 21779 ft | 361 kts | 31° |
| 2026-04-30 20:19 | 49.41997 | -1.87759 | 21439 ft | 359 kts | 31° |
| 2026-04-30 20:19 | 49.44171 | -1.85906 | 21097 ft | 357 kts | 31° |
| 2026-04-30 20:20 | 49.46334 | -1.84060 | 20767 ft | 354 kts | 32° |
| 2026-04-30 20:20 | 49.48483 | -1.82223 | 20444 ft | 352 kts | 32° |
| 2026-04-30 20:20 | 49.50618 | -1.80395 | 20108 ft | 351 kts | 32° |
| 2026-04-30 20:20 | 49.52746 | -1.78574 | 19763 ft | 349 kts | 33° |
| 2026-04-30 20:21 | 49.54867 | -1.76759 | 19434 ft | 348 kts | 33° |
| 2026-04-30 20:21 | 49.56979 | -1.74950 | 19109 ft | 347 kts | 33° |
| 2026-04-30 20:21 | 49.59215 | -1.73515 | 18761 ft | 353 kts | 16° |
| 2026-04-30 20:21 | 49.61663 | -1.73152 | 18440 ft | 357 kts | 358° |
| 2026-04-30 20:22 | 49.64124 | -1.73715 | 18070 ft | 358 kts | 351° |
| 2026-04-30 20:22 | 49.66561 | -1.74462 | 17711 ft | 356 kts | 350° |
| 2026-04-30 20:22 | 49.68987 | -1.75230 | 17364 ft | 355 kts | 350° |
| 2026-04-30 20:22 | 49.71398 | -1.75987 | 17032 ft | 353 kts | 350° |
| 2026-04-30 20:23 | 49.73798 | -1.76724 | 16702 ft | 351 kts | 350° |
| 2026-04-30 20:23 | 49.76189 | -1.77446 | 16375 ft | 349 kts | 350° |
| 2026-04-30 20:23 | 49.78567 | -1.78155 | 16056 ft | 347 kts | 350° |
| 2026-04-30 20:23 | 49.80934 | -1.78856 | 15737 ft | 346 kts | 350° |
| 2026-04-30 20:24 | 49.83289 | -1.79554 | 15422 ft | 344 kts | 350° |
| 2026-04-30 20:24 | 49.85632 | -1.80247 | 15104 ft | 343 kts | 350° |
| 2026-04-30 20:24 | 49.87975 | -1.80939 | 14787 ft | 341 kts | 350° |
| 2026-04-30 20:24 | 49.90301 | -1.81628 | 14485 ft | 340 kts | 350° |
| 2026-04-30 20:25 | 49.94937 | -1.83000 | 13834 ft | 338 kts | 349° |
| 2026-04-30 20:25 | 49.97237 | -1.83686 | 13486 ft | 337 kts | 349° |
| 2026-04-30 20:26 | 50.01863 | -1.84411 | 12838 ft | 330 kts | 7° |
| 2026-04-30 20:26 | 50.06407 | -1.83671 | 12204 ft | 327 kts | 7° |
| 2026-04-30 20:26 | 50.08662 | -1.83334 | 11897 ft | 325 kts | 7° |
| 2026-04-30 20:27 | 50.13148 | -1.82750 | 11273 ft | 323 kts | 2° |
| 2026-04-30 20:27 | 50.17472 | -1.84496 | 10612 ft | 323 kts | 339° |
| 2026-04-30 20:28 | 50.21609 | -1.86991 | 10244 ft | 312 kts | 339° |
| 2026-04-30 20:28 | 50.25574 | -1.89360 | 9787 ft | 305 kts | 339° |
| 2026-04-30 20:29 | 50.29527 | -1.91691 | 9208 ft | 302 kts | 339° |
| 2026-04-30 20:30 | 50.35398 | -1.95134 | 8353 ft | 299 kts | 339° |
| 2026-04-30 20:30 | 50.41202 | -1.98537 | 7521 ft | 295 kts | 339° |
| 2026-04-30 20:31 | 50.46953 | -2.01914 | 6683 ft | 293 kts | 339° |
| 2026-04-30 20:32 | 50.52645 | -2.05263 | 5833 ft | 290 kts | 339° |
| 2026-04-30 20:32 | 50.56442 | -2.07504 | 5181 ft | 291 kts | 339° |
| 2026-04-30 20:33 | 50.58316 | -2.08611 | 4866 ft | 285 kts | 339° |
| 2026-04-30 20:33 | 50.61959 | -2.10766 | 4241 ft | 274 kts | 339° |
| 2026-04-30 20:33 | 50.63719 | -2.11808 | 3994 ft | 268 kts | 339° |
| 2026-04-30 20:34 | 50.67100 | -2.13815 | 3576 ft | 250 kts | 340° |
| 2026-04-30 20:34 | 50.70264 | -2.15527 | 3407 ft | 239 kts | 356° |
| 2026-04-30 20:35 | 50.71861 | -2.15020 | 3292 ft | 230 kts | 34° |
| 2026-04-30 20:35 | 50.72902 | -2.13303 | 3208 ft | 213 kts | 70° |
| 2026-04-30 20:35 | 50.73891 | -2.09105 | 2882 ft | 194 kts | 78° |
| 2026-04-30 20:36 | 50.74245 | -2.07111 | 2757 ft | 182 kts | 81° |
| 2026-04-30 20:36 | 50.74552 | -2.05247 | 2578 ft | 174 kts | 81° |
| 2026-04-30 20:36 | 50.75116 | -2.01804 | 2170 ft | 152 kts | 82° |
| 2026-04-30 20:37 | 50.75369 | -2.00270 | 2005 ft | 137 kts | 83° |
| 2026-04-30 20:37 | 50.75604 | -1.98825 | 1812 ft | 136 kts | 84° |
| 2026-04-30 20:37 | 50.75840 | -1.97394 | 1636 ft | 134 kts | 83° |
| 2026-04-30 20:37 | 50.76073 | -1.95978 | 1441 ft | 132 kts | 81° |
| 2026-04-30 20:38 | 50.76309 | -1.94547 | 1316 ft | 136 kts | 82° |
| 2026-04-30 20:38 | 50.76546 | -1.93096 | 1133 ft | 137 kts | 79° |
| 2026-04-30 20:38 | 50.76789 | -1.91650 | 940 ft | 135 kts | 78° |
| 2026-04-30 20:39 | 50.77258 | -1.88777 | 571 ft | 136 kts | 76° |
| 2026-04-30 20:39 | 50.77501 | -1.87337 | 418 ft | 135 kts | 78° |
| 2026-04-30 20:39 | 50.77732 | -1.85930 | 189 ft | 129 kts | 77° |
| 2026-04-30 20:40 | 50.78105 | -1.83670 | 43 ft | 56 kts | 75° |
| 2026-04-30 20:40 | 50.78153 | -1.83375 | 47 ft | 6 kts | 95° |
| 2026-04-30 20:40 | 50.78163 | -1.83332 | 45 ft | 5 kts | 4° |
| 2026-04-30 20:41 | 50.78138 | -1.83488 | 46 ft | 20 kts | 255° |
| 2026-04-30 20:41 | 50.78092 | -1.83580 | 45 ft | 9 kts | 173° |
| 2026-04-30 20:41 | 50.78018 | -1.83548 | 44 ft | 12 kts | 163° |
| 2026-04-30 20:41 | 50.77945 | -1.83508 | 44 ft | 9 kts | 156° |
| 2026-04-30 20:42 | 50.77887 | -1.83484 | 45 ft | 8 kts | 172° |
| 2026-04-30 20:42 | 50.77830 | -1.83473 | 45 ft | 8 kts | 175° |
| 2026-04-30 20:42 | 50.77806 | -1.83406 | 45 ft | 3 kts | 88° |
| 2026-04-30 20:43 | 50.77807 | -1.83387 | 45 ft | 1 kts | 87° |
| 2026-04-30 20:43 | 50.77807 | -1.83379 | 45 ft | 1 kts | 87° |
| 2026-04-30 20:43 | 50.77807 | -1.83378 | 45 ft | 0 kts | 87° |
| 2026-04-30 20:44 | 50.77806 | -1.83379 | 45 ft | 0 kts | 90° |